PDT,Max TemperatureF,Mean TemperatureF,Min TemperatureF,Max Dew PointF,MeanDew PointF,Min DewpointF,Max Humidity, Mean Humidity, Min Humidity, Max Sea Level PressureIn, Mean Sea Level PressureIn, Min Sea Level PressureIn, Max VisibilityMiles, Mean VisibilityMiles, Min VisibilityMiles, Max Wind SpeedMPH, Mean Wind SpeedMPH, Max Gust SpeedMPH,PrecipitationIn, CloudCover, Events, WindDirDegrees
2012-9-1,88,73,58,50,46,40,62,41,20,29.99,29.93,29.88,10,10,10,14,5,17,0.00,0,,336
2012-9-2,90,76,62,51,49,46,60,42,24,29.97,29.91,29.85,10,10,10,13,4,18,0.00,0,,322
2012-9-3,97,81,65,49,46,41,49,32,15,29.94,29.89,29.83,10,10,10,15,5,22,0.00,0,,356
2012-9-4,99,87,74,49,46,42,36,26,15,29.96,29.90,29.84,10,10,10,14,5,16,0.00,0,,328
2012-9-5,87,80,72,54,45,33,36,27,18,29.94,29.90,29.86,10,10,8,12,3,14,T,1,,88
2012-9-6,93,81,69,56,48,31,53,36,18,29.94,29.90,29.86,10,10,10,13,4,14,T,0,,300
2012-9-7,94,82,69,55,50,45,49,37,24,30.03,29.96,29.90,10,10,10,10,5,15,0.00,0,,313
2012-9-8,95,83,70,57,52,48,61,42,23,30.00,29.92,29.83,10,10,9,14,6,17,0.00,0,,342
2012-9-9,95,83,71,57,50,40,57,37,17,29.92,29.86,29.79,10,10,10,12,4,16,0.00,0,,287
2012-9-10,95,82,68,55,48,39,53,36,18,29.88,29.82,29.74,10,10,10,15,6,17,0.00,0,,315
2012-9-11,96,83,69,55,51,47,53,37,20,29.89,29.83,29.79,10,10,10,16,6,23,0.00,0,,327
2012-9-12,95,82,69,58,54,50,61,42,22,30.00,29.94,29.88,10,10,9,15,6,20,0.00,0,,339
2012-9-13,102,87,71,57,52,41,57,35,13,30.05,29.99,29.90,10,10,9,15,5,18,0.00,0,,5
2012-9-14,104,87,70,54,48,37,49,32,14,30.03,29.96,29.87,10,10,10,15,6,18,0.00,0,,3
2012-9-15,100,86,71,58,52,47,53,35,17,30.04,29.97,29.88,10,10,10,14,5,17,0.00,0,,314
2012-9-16,101,86,70,56,47,39,57,35,12,30.00,29.94,29.86,10,10,10,16,6,21,0.00,0,,360
2012-9-17,99,84,69,45,38,27,37,24,10,29.99,29.92,29.83,10,10,10,15,6,20,0.00,0,,331
2012-9-18,92,78,63,47,42,32,39,29,18,30.02,29.97,29.91,10,10,10,8,4,9,0.00,0,,318
2012-9-19,90,78,65,50,46,43,52,36,19,30.04,29.98,29.92,10,10,7,13,3,16,0.00,0,,273
2012-9-20,90,77,64,52,48,44,53,38,23,30.01,29.95,29.88,10,10,8,13,4,15,0.00,0,,320
2012-9-21,91,78,64,53,51,47,53,40,27,29.95,29.89,29.83,10,10,6,10,3,13,0.00,0,,298
2012-9-22,92,80,68,58,54,50,53,42,30,29.91,29.87,29.83,10,9,7,9,3,12,0.00,0,,350
2012-9-23,101,84,67,54,44,37,46,29,11,29.94,29.88,29.84,10,10,10,15,5,21,0.00,0,,1
2012-9-24,97,83,69,43,37,28,35,22,9,29.91,29.85,29.76,10,10,9,16,5,21,0.00,0,,353
2012-9-25,90,76,61,43,40,37,43,30,16,29.90,29.85,29.79,10,10,7,15,4,20,0.00,0,,14
2012-9-26,95,78,61,47,41,36,43,29,15,29.85,29.81,29.74,10,10,8,15,4,20,0.00,0,,62
2012-9-27,96,80,64,54,47,40,48,34,19,29.89,29.83,29.76,10,9,7,15,4,18,0.00,0,,354
2012-9-28,97,82,67,52,47,38,52,35,18,29.88,29.82,29.74,10,10,6,16,5,20,0.00,0,,339
2012-9-29,92,78,64,53,48,42,48,37,25,29.99,29.94,29.89,10,10,10,12,4,16,0.00,0,,322
2012-9-30,95,80,65,54,51,48,52,37,22,30.03,29.98,29.91,10,10,10,15,5,18,0.00,0,,38